createdAt,value
2023-05-05T00:00:42.261Z,84.50
2023-05-05T00:01:47.671Z,84.70
2023-05-05T00:02:51.796Z,84.70
2023-05-05T00:03:53.971Z,84.60
2023-05-05T00:04:59.349Z,84.60
2023-05-05T00:06:05.680Z,84.70
2023-05-05T00:07:10.885Z,84.80
2023-05-05T00:08:12.938Z,84.60
2023-05-05T00:09:20.308Z,84.40
2023-05-05T00:10:27.430Z,84.40
2023-05-05T00:11:34.817Z,84.50
2023-05-05T00:12:44.238Z,84.80
2023-05-05T00:13:52.109Z,85.00
2023-05-05T00:14:53.973Z,84.80
2023-05-05T00:15:56.036Z,84.90
2023-05-05T00:17:01.545Z,85.10
2023-05-05T00:18:09.422Z,85.00
2023-05-05T00:19:22.904Z,85.10
2023-05-05T00:20:26.305Z,85.10
2023-05-05T00:21:31.315Z,84.80
2023-05-05T00:22:34.112Z,85.00
2023-05-05T00:23:38.394Z,85.00
2023-05-05T00:24:42.456Z,85.30
2023-05-05T00:25:47.117Z,85.40
2023-05-05T00:26:49.006Z,85.60
2023-05-05T00:27:52.365Z,86.20
2023-05-05T00:28:57.273Z,86.50
2023-05-05T00:29:59.231Z,86.70
2023-05-05T00:31:02.742Z,87.10
2023-05-05T00:32:04.835Z,86.90
2023-05-05T00:33:06.924Z,86.90
2023-05-05T00:34:08.892Z,87.10
2023-05-05T00:35:11.078Z,87.40
2023-05-05T00:36:15.647Z,87.50
2023-05-05T00:37:20.752Z,87.70
2023-05-05T00:38:25.220Z,87.90
2023-05-05T00:39:27.104Z,88.40
2023-05-05T00:40:45.494Z,87.90
2023-05-05T00:41:50.649Z,87.90
2023-05-05T00:42:54.024Z,88.10
2023-05-05T00:43:58.929Z,88.10
2023-05-05T00:45:06.902Z,88.10
2023-05-05T00:46:18.449Z,88.00
2023-05-05T00:47:24.554Z,88.10
2023-05-05T00:48:27.431Z,88.00
2023-05-05T00:49:29.857Z,88.00
2023-05-05T00:50:31.877Z,88.20
2023-05-05T00:51:33.937Z,88.10
2023-05-05T00:52:36.229Z,87.90
2023-05-05T00:53:39.785Z,88.00
2023-05-05T00:54:41.885Z,88.10
2023-05-05T00:55:43.843Z,87.90
2023-05-05T00:56:45.949Z,88.10
2023-05-05T00:57:48.297Z,88.40
2023-05-05T00:58:51.773Z,88.50
2023-05-05T00:59:57.728Z,88.60
2023-05-05T01:01:03.058Z,88.60
2023-05-05T01:02:06.271Z,88.70
2023-05-05T01:03:08.251Z,88.80
2023-05-05T01:04:13.314Z,88.90
2023-05-05T01:05:16.689Z,88.80
2023-05-05T01:06:25.178Z,88.90
2023-05-05T01:07:36.861Z,89.00
2023-05-05T01:08:44.927Z,88.90
2023-05-05T01:09:57.987Z,89.00
2023-05-05T01:11:11.310Z,88.90
2023-05-05T01:12:20.233Z,88.90
2023-05-05T01:13:25.848Z,88.70
2023-05-05T01:14:35.119Z,89.10
2023-05-05T01:15:45.422Z,89.30
2023-05-05T01:16:56.435Z,89.10
2023-05-05T01:18:06.968Z,89.20
2023-05-05T01:19:15.457Z,89.30
2023-05-05T01:20:20.984Z,89.30
2023-05-05T01:21:27.159Z,89.30
2023-05-05T01:22:35.103Z,89.30
2023-05-05T01:23:52.485Z,89.40
2023-05-05T01:25:08.536Z,89.50
2023-05-05T01:26:24.596Z,89.70
2023-05-05T01:27:34.511Z,89.70
2023-05-05T01:28:51.486Z,89.50
2023-05-05T01:30:05.836Z,89.60
2023-05-05T01:32:39.214Z,89.30
2023-05-05T01:33:45.234Z,89.40
2023-05-05T01:34:54.283Z,89.40
2023-05-05T01:36:08.267Z,89.50
2023-05-05T01:37:17.178Z,89.60
2023-05-05T01:38:24.705Z,89.40
2023-05-05T01:39:29.544Z,89.30
2023-05-05T01:40:34.753Z,89.50
2023-05-05T01:41:42.273Z,89.40
2023-05-05T01:42:44.727Z,89.30
2023-05-05T01:43:49.935Z,89.30
2023-05-05T01:44:53.459Z,89.40
2023-05-05T01:45:55.816Z,89.40
2023-05-05T01:46:59.395Z,89.50
2023-05-05T01:48:03.014Z,89.50
2023-05-05T01:49:05.565Z,89.60
2023-05-05T01:50:12.347Z,89.80
2023-05-05T01:51:18.762Z,89.60
2023-05-05T01:52:25.777Z,89.70
2023-05-05T01:53:28.360Z,89.90
2023-05-05T01:54:35.477Z,90.00
2023-05-05T01:55:39.171Z,90.00
2023-05-05T01:56:41.353Z,90.00
2023-05-05T01:57:44.826Z,90.10
2023-05-05T01:58:47.325Z,90.20
2023-05-05T01:59:50.516Z,90.20
2023-05-05T02:00:53.991Z,90.20
2023-05-05T02:02:03.272Z,90.30
2023-05-05T02:03:13.068Z,90.20
2023-05-05T02:04:18.086Z,90.30
2023-05-05T02:05:23.967Z,90.40
2023-05-05T02:06:27.496Z,90.40
2023-05-05T02:07:34.197Z,90.40
2023-05-05T02:08:38.536Z,90.40
2023-05-05T02:09:41.612Z,90.50
2023-05-05T02:10:45.047Z,90.50
2023-05-05T02:11:47.517Z,90.60
2023-05-05T02:12:51.292Z,90.60
2023-05-05T02:13:54.714Z,90.60
2023-05-05T02:14:59.282Z,90.70
2023-05-05T02:16:04.403Z,90.70
2023-05-05T02:17:13.527Z,90.70
2023-05-05T02:18:18.816Z,90.80
2023-05-05T02:19:31.011Z,90.80
2023-05-05T02:20:39.475Z,90.70
2023-05-05T02:21:51.765Z,90.80
2023-05-05T02:22:54.248Z,90.70
2023-05-05T02:23:56.781Z,90.70
2023-05-05T02:24:59.178Z,90.70
2023-05-05T02:26:05.091Z,90.50
2023-05-05T02:27:07.877Z,90.70
2023-05-05T02:28:13.476Z,90.80
2023-05-05T02:29:21.246Z,90.70
2023-05-05T02:30:29.724Z,90.70
2023-05-05T02:31:36.216Z,90.70
2023-05-05T02:32:43.215Z,90.80
2023-05-05T02:33:49.804Z,90.80
2023-05-05T02:34:54.784Z,90.80
2023-05-05T02:35:57.986Z,90.60
2023-05-05T02:37:04.882Z,90.70
2023-05-05T02:38:14.849Z,90.80
2023-05-05T02:39:21.979Z,90.80
2023-05-05T02:40:25.299Z,90.80
2023-05-05T02:41:31.095Z,90.80
2023-05-05T02:42:38.119Z,90.80
2023-05-05T02:43:42.631Z,90.90
2023-05-05T02:44:50.376Z,90.90
2023-05-05T02:45:55.487Z,90.90
2023-05-05T02:46:58.142Z,91.00
2023-05-05T02:48:05.168Z,90.90
2023-05-05T02:49:14.375Z,90.90
2023-05-05T02:50:20.949Z,90.90
2023-05-05T02:51:30.302Z,90.90
2023-05-05T02:52:33.525Z,90.90
2023-05-05T02:53:36.630Z,90.70
2023-05-05T02:54:41.313Z,90.70
2023-05-05T02:55:50.235Z,90.80
2023-05-05T02:56:54.555Z,91.00
2023-05-05T02:58:01.184Z,91.00
2023-05-05T02:59:08.970Z,91.10
2023-05-05T03:00:15.101Z,91.10
2023-05-05T03:01:29.852Z,91.10
2023-05-05T03:02:39.438Z,91.20
2023-05-05T03:03:46.351Z,91.10
2023-05-05T03:04:56.657Z,91.10
2023-05-05T03:06:02.649Z,91.20
2023-05-05T03:07:07.969Z,91.30
2023-05-05T03:08:17.292Z,91.30
2023-05-05T03:09:24.868Z,91.30
2023-05-05T03:10:31.734Z,91.30
2023-05-05T03:11:37.243Z,91.40
2023-05-05T03:12:44.141Z,91.30
2023-05-05T03:13:53.818Z,91.40
2023-05-05T03:14:58.341Z,91.30
2023-05-05T03:16:04.638Z,91.30
2023-05-05T03:17:07.008Z,91.20
2023-05-05T03:18:11.834Z,91.30
2023-05-05T03:19:16.414Z,91.30
2023-05-05T03:20:29.291Z,91.40
2023-05-05T03:21:32.977Z,91.30
2023-05-05T03:22:37.818Z,91.40
2023-05-05T03:23:41.428Z,91.40
2023-05-05T03:24:50.161Z,91.40
2023-05-05T03:25:54.862Z,91.40
2023-05-05T03:26:57.685Z,91.50
2023-05-05T03:27:59.584Z,91.50
2023-05-05T03:29:02.767Z,91.50
2023-05-05T03:30:05.841Z,91.40
2023-05-05T03:31:13.218Z,91.60
2023-05-05T03:32:16.932Z,91.50
2023-05-05T03:33:22.802Z,91.50
2023-05-05T03:34:49.732Z,91.60
2023-05-05T03:35:54.146Z,91.50
2023-05-05T03:36:59.158Z,91.60
2023-05-05T03:38:01.311Z,91.40
2023-05-05T03:39:04.286Z,91.50
2023-05-05T03:40:14.331Z,91.60
2023-05-05T03:41:16.400Z,91.60
2023-05-05T03:42:18.439Z,91.60
2023-05-05T03:43:21.100Z,91.50
2023-05-05T03:44:24.629Z,91.60
2023-05-05T03:45:27.342Z,91.50
2023-05-05T03:46:29.381Z,91.40
2023-05-05T03:47:43.516Z,91.60
2023-05-05T03:48:57.356Z,91.70
2023-05-05T03:50:05.265Z,91.80
2023-05-05T03:51:13.697Z,92.00
2023-05-05T03:52:18.624Z,91.70
2023-05-05T03:53:20.658Z,91.60
2023-05-05T03:54:22.668Z,91.50
2023-05-05T03:55:27.771Z,91.50
2023-05-05T03:56:29.796Z,91.60
2023-05-05T03:57:34.166Z,91.60
2023-05-05T03:58:36.178Z,91.60
2023-05-05T03:59:38.122Z,91.70
2023-05-05T04:00:40.190Z,91.60
2023-05-05T04:01:42.217Z,91.60
2023-05-05T04:02:44.425Z,91.60
2023-05-05T04:03:46.537Z,91.50
2023-05-05T04:04:50.861Z,91.50
2023-05-05T04:05:52.938Z,91.40
2023-05-05T04:06:56.376Z,91.50
2023-05-05T04:08:01.022Z,91.60
2023-05-05T04:09:03.479Z,91.50
2023-05-05T04:10:08.916Z,91.60
2023-05-05T04:11:11.230Z,91.60
2023-05-05T04:12:13.539Z,91.40
2023-05-05T04:13:15.621Z,91.50
2023-05-05T04:14:17.605Z,91.30
2023-05-05T04:15:19.652Z,91.40
2023-05-05T04:16:21.697Z,91.50
2023-05-05T04:17:23.734Z,91.40
2023-05-05T04:18:25.909Z,91.30
2023-05-05T04:19:27.851Z,91.30
2023-05-05T04:20:29.930Z,91.30
2023-05-05T04:21:31.907Z,91.40
2023-05-05T04:22:35.337Z,91.40
2023-05-05T04:23:37.562Z,91.40
2023-05-05T04:24:39.572Z,91.30
2023-05-05T04:25:43.950Z,91.30
2023-05-05T04:26:46.378Z,91.20
2023-05-05T04:27:48.374Z,91.30
2023-05-05T04:28:50.503Z,91.30
2023-05-05T04:29:52.493Z,91.30
2023-05-05T04:30:54.445Z,91.20
2023-05-05T04:31:56.926Z,91.20
2023-05-05T04:32:59.079Z,91.20
2023-05-05T04:34:01.178Z,91.20
2023-05-05T04:35:03.063Z,91.20
2023-05-05T04:36:05.175Z,91.20
2023-05-05T04:37:07.256Z,91.20
2023-05-05T04:38:10.658Z,91.10
2023-05-05T04:39:12.720Z,91.10
2023-05-05T04:40:14.772Z,91.00
2023-05-05T04:41:16.735Z,90.90
2023-05-05T04:42:18.799Z,90.90
2023-05-05T04:43:21.036Z,90.80
2023-05-05T04:44:23.066Z,90.70
2023-05-05T04:45:25.211Z,90.70
2023-05-05T04:46:27.138Z,90.70
2023-05-05T04:47:29.392Z,90.60
2023-05-05T04:48:31.423Z,90.50
2023-05-05T04:49:33.837Z,90.40
2023-05-05T04:50:37.082Z,90.40
2023-05-05T04:51:40.949Z,90.40
2023-05-05T04:52:42.899Z,90.30
2023-05-05T04:53:46.550Z,90.20
2023-05-05T04:54:49.598Z,90.20
2023-05-05T04:55:51.670Z,89.90
2023-05-05T04:56:54.056Z,89.90
2023-05-05T04:57:56.010Z,89.70
2023-05-05T04:58:57.883Z,90.00
2023-05-05T05:00:00.408Z,89.60
2023-05-05T05:01:02.449Z,89.20
2023-05-05T05:02:04.680Z,88.90
2023-05-05T05:03:08.258Z,88.20
2023-05-05T05:04:14.104Z,87.70
2023-05-05T05:05:21.246Z,87.50
2023-05-05T05:06:26.731Z,86.90
2023-05-05T05:07:31.865Z,86.40
2023-05-05T05:08:39.271Z,86.00
2023-05-05T05:09:42.699Z,86.00
2023-05-05T05:10:45.269Z,85.20
2023-05-05T05:11:49.950Z,84.70
2023-05-05T05:12:52.044Z,84.30
2023-05-05T05:13:54.325Z,84.00
2023-05-05T05:14:56.404Z,83.80
2023-05-05T05:15:58.424Z,83.30
2023-05-05T05:17:00.385Z,83.30
2023-05-05T05:18:02.339Z,83.20
2023-05-05T05:19:04.274Z,82.90
2023-05-05T05:20:07.384Z,82.60
2023-05-05T05:21:10.564Z,82.50
2023-05-05T05:22:13.047Z,81.80
2023-05-05T05:23:15.022Z,80.50
2023-05-05T05:24:16.903Z,80.10
2023-05-05T05:25:20.410Z,79.50
2023-05-05T05:26:22.812Z,79.20
2023-05-05T05:27:24.723Z,79.00
2023-05-05T05:28:26.766Z,78.80
2023-05-05T05:29:28.871Z,79.00
2023-05-05T05:30:35.134Z,79.10
2023-05-05T05:31:37.224Z,78.80
2023-05-05T05:32:39.144Z,78.30
2023-05-05T05:33:41.101Z,77.70
2023-05-05T05:34:43.031Z,77.70
2023-05-05T05:35:44.942Z,77.70
2023-05-05T05:36:46.838Z,76.30
2023-05-05T05:37:50.885Z,74.70
2023-05-05T05:38:52.801Z,72.80
2023-05-05T05:39:54.737Z,70.60
2023-05-05T05:40:58.133Z,69.20
2023-05-05T05:42:00.113Z,69.30
2023-05-05T05:43:02.962Z,69.70
2023-05-05T05:44:05.007Z,69.50
2023-05-05T05:45:07.755Z,70.20
2023-05-05T05:46:09.636Z,70.10
2023-05-05T05:47:11.640Z,69.90
2023-05-05T05:48:13.514Z,69.90
2023-05-05T05:49:16.395Z,69.70
2023-05-05T05:50:18.401Z,69.50
2023-05-05T05:51:20.436Z,69.10
2023-05-05T05:52:22.726Z,68.90
2023-05-05T05:53:24.679Z,68.70
2023-05-05T05:54:26.666Z,68.90
2023-05-05T05:55:28.776Z,69.10
2023-05-05T05:56:32.155Z,67.40
2023-05-05T05:57:34.069Z,67.10
2023-05-05T05:58:36.097Z,65.70
2023-05-05T05:59:38.017Z,64.50
2023-05-05T06:00:39.890Z,64.20
2023-05-05T06:01:41.869Z,64.60
2023-05-05T06:02:43.852Z,64.50
2023-05-05T06:03:46.058Z,63.40
2023-05-05T06:04:48.220Z,61.10
2023-05-05T06:05:50.630Z,59.80
2023-05-05T06:06:52.595Z,59.80
2023-05-05T06:07:54.546Z,59.60
2023-05-05T06:08:56.504Z,59.50
2023-05-05T06:09:59.287Z,59.70
2023-05-05T06:11:03.451Z,58.60
2023-05-05T06:12:09.100Z,58.20
2023-05-05T06:13:11.233Z,57.20
2023-05-05T06:14:13.272Z,56.40
2023-05-05T06:15:15.308Z,55.20
2023-05-05T06:16:17.393Z,52.20
2023-05-05T06:17:19.366Z,51.60
2023-05-05T06:18:21.377Z,52.80
2023-05-05T06:19:23.551Z,53.50
2023-05-05T06:20:45.709Z,54.10
2023-05-05T06:21:52.223Z,53.10
2023-05-05T06:22:54.190Z,54.20
2023-05-05T06:23:56.146Z,55.90
2023-05-05T06:24:58.057Z,56.40
2023-05-05T06:25:59.938Z,57.20
2023-05-05T06:27:02.473Z,57.50
2023-05-05T06:28:05.891Z,56.90
2023-05-05T06:29:08.258Z,56.40
2023-05-05T06:30:11.562Z,57.10
2023-05-05T06:31:14.421Z,55.60
2023-05-05T06:32:16.437Z,55.00
2023-05-05T06:33:18.346Z,54.40
2023-05-05T06:34:20.387Z,54.00
2023-05-05T06:35:22.400Z,53.90
2023-05-05T06:36:24.385Z,54.70
2023-05-05T06:37:26.425Z,54.90
2023-05-05T06:38:28.276Z,55.50
2023-05-05T06:39:30.745Z,56.00
2023-05-05T06:40:32.617Z,56.80
2023-05-05T06:41:34.512Z,58.50
2023-05-05T06:42:36.942Z,59.20
2023-05-05T06:43:41.353Z,59.20
2023-05-05T06:44:43.224Z,59.40
2023-05-05T06:45:45.460Z,59.40
2023-05-05T06:46:47.484Z,59.60
2023-05-05T06:47:49.673Z,59.80
2023-05-05T06:48:51.646Z,60.60
2023-05-05T06:49:53.830Z,60.60
2023-05-05T06:50:57.113Z,60.30
2023-05-05T06:52:02.002Z,61.00
2023-05-05T06:53:04.455Z,62.10
2023-05-05T06:54:06.661Z,62.00
2023-05-05T06:55:09.725Z,60.90
2023-05-05T06:56:11.698Z,59.70
2023-05-05T06:57:13.641Z,59.70
2023-05-05T06:58:15.585Z,60.50
2023-05-05T06:59:19.008Z,60.50
2023-05-05T07:00:22.183Z,60.40
2023-05-05T07:01:24.173Z,60.00
2023-05-05T07:02:27.050Z,60.40
2023-05-05T07:03:29.030Z,59.60
2023-05-05T07:04:31.666Z,58.10
2023-05-05T07:05:33.571Z,56.70
2023-05-05T07:06:35.562Z,56.40
2023-05-05T07:07:38.357Z,56.60
2023-05-05T07:08:40.231Z,56.90
2023-05-05T07:09:42.272Z,57.40
2023-05-05T07:10:44.354Z,58.10
2023-05-05T07:11:46.481Z,58.30
2023-05-05T07:12:48.573Z,58.60
2023-05-05T07:13:50.502Z,58.70
2023-05-05T07:14:53.811Z,58.80
2023-05-05T07:15:55.798Z,58.70
2023-05-05T07:16:58.588Z,58.50
2023-05-05T07:18:00.858Z,58.60
2023-05-05T07:19:07.777Z,58.80
2023-05-05T07:20:10.816Z,58.30
2023-05-05T07:21:12.971Z,58.80
2023-05-05T07:22:14.937Z,58.90
2023-05-05T07:23:16.872Z,59.00
2023-05-05T07:24:19.107Z,59.20
2023-05-05T07:25:21.265Z,59.40
2023-05-05T07:26:23.316Z,60.20
2023-05-05T07:27:25.394Z,59.50
2023-05-05T07:28:27.327Z,59.70
2023-05-05T07:29:32.128Z,59.40
2023-05-05T07:30:36.899Z,57.30
2023-05-05T07:31:38.831Z,57.70
2023-05-05T07:32:40.898Z,58.10
2023-05-05T07:33:42.829Z,58.50
2023-05-05T07:34:47.771Z,58.90
2023-05-05T07:35:49.762Z,59.20
2023-05-05T07:36:51.821Z,59.30
2023-05-05T07:37:53.776Z,61.20
2023-05-05T07:38:55.851Z,62.30
2023-05-05T07:39:57.741Z,63.10
2023-05-05T07:40:59.678Z,63.40
2023-05-05T07:42:01.843Z,63.60
2023-05-05T07:43:06.212Z,64.20
2023-05-05T07:44:08.274Z,64.80
2023-05-05T07:45:10.656Z,65.90
2023-05-05T07:46:14.096Z,66.90
2023-05-05T07:47:16.455Z,67.10
2023-05-05T07:48:22.666Z,67.60
2023-05-05T07:49:24.924Z,67.90
2023-05-05T07:50:27.359Z,67.80
2023-05-05T07:51:30.022Z,67.60
2023-05-05T07:52:44.986Z,67.30
2023-05-05T07:53:52.980Z,67.10
2023-05-05T07:54:54.880Z,68.00
2023-05-05T07:55:56.779Z,70.40
2023-05-05T07:57:02.352Z,70.80
2023-05-05T07:58:04.645Z,71.60
2023-05-05T07:59:06.658Z,70.80
2023-05-05T08:00:15.109Z,68.90
2023-05-05T08:01:18.793Z,67.90
2023-05-05T08:02:24.490Z,67.10
2023-05-05T08:03:26.932Z,64.90
2023-05-05T08:04:29.493Z,64.40
2023-05-05T08:05:33.124Z,65.00
2023-05-05T08:06:35.111Z,65.30
2023-05-05T08:07:41.292Z,65.20
2023-05-05T08:08:44.790Z,63.40
2023-05-05T08:09:49.654Z,61.10
2023-05-05T08:10:53.074Z,59.50
2023-05-05T08:11:55.148Z,59.40
2023-05-05T08:12:57.234Z,58.90
2023-05-05T08:13:59.172Z,58.90
2023-05-05T08:15:01.189Z,58.90
2023-05-05T08:16:03.113Z,59.90
2023-05-05T08:17:08.478Z,60.00
2023-05-05T08:18:10.430Z,59.90
2023-05-05T08:19:27.612Z,59.60
2023-05-05T08:20:30.582Z,59.10
2023-05-05T08:21:32.477Z,59.70
2023-05-05T08:22:34.436Z,60.50
2023-05-05T08:23:37.392Z,58.50
2023-05-05T08:24:41.842Z,58.60
2023-05-05T08:25:44.277Z,58.90
2023-05-05T08:26:46.308Z,58.50
2023-05-05T08:27:53.755Z,58.60
2023-05-05T08:29:00.832Z,58.60
2023-05-05T08:30:03.063Z,59.50
2023-05-05T08:31:05.663Z,58.90
2023-05-05T08:32:09.096Z,58.60
2023-05-05T08:33:12.246Z,59.40
2023-05-05T08:34:14.196Z,59.70
2023-05-05T08:35:16.130Z,59.70
2023-05-05T08:36:18.091Z,58.80
2023-05-05T08:37:20.060Z,58.50
2023-05-05T08:38:21.920Z,58.40
2023-05-05T08:39:23.881Z,58.10
2023-05-05T08:40:29.516Z,58.00
2023-05-05T08:41:31.441Z,58.20
2023-05-05T08:42:38.738Z,58.20
2023-05-05T08:43:43.022Z,56.70
2023-05-05T08:44:44.971Z,56.90
2023-05-05T08:45:47.295Z,57.40
2023-05-05T08:46:49.797Z,57.50
2023-05-05T08:47:53.610Z,57.10
2023-05-05T08:48:56.301Z,57.40
2023-05-05T08:49:59.386Z,57.60
2023-05-05T08:51:05.437Z,56.70
2023-05-05T08:52:09.922Z,57.00
2023-05-05T08:53:15.548Z,57.30
2023-05-05T08:54:19.803Z,56.60
2023-05-05T08:55:24.326Z,57.00
2023-05-05T08:56:30.074Z,56.50
2023-05-05T08:57:35.604Z,56.70
2023-05-05T08:58:37.701Z,56.80
2023-05-05T08:59:39.889Z,56.80
2023-05-05T09:00:43.160Z,56.90
2023-05-05T09:01:45.126Z,56.60
2023-05-05T09:02:47.298Z,56.90
2023-05-05T09:03:52.552Z,57.00
2023-05-05T09:04:54.818Z,57.30
2023-05-05T09:05:57.229Z,56.40
2023-05-05T09:06:59.815Z,56.60
2023-05-05T09:08:02.089Z,56.40
2023-05-05T09:09:05.065Z,56.80
2023-05-05T09:10:08.226Z,56.50
2023-05-05T09:11:10.227Z,55.00
2023-05-05T09:12:12.248Z,53.70
2023-05-05T09:13:26.770Z,53.50
2023-05-05T09:14:28.568Z,53.50
2023-05-05T09:15:30.843Z,53.70
2023-05-05T09:16:32.753Z,52.20
2023-05-05T09:17:34.627Z,52.00
2023-05-05T09:18:37.091Z,50.90
2023-05-05T09:19:53.783Z,50.60
2023-05-05T09:20:59.396Z,50.80
2023-05-05T09:22:01.951Z,51.30
2023-05-05T09:23:10.307Z,51.80
2023-05-05T09:24:13.168Z,51.40
2023-05-05T09:25:15.665Z,51.30
2023-05-05T09:26:17.574Z,51.30
2023-05-05T09:27:21.812Z,51.00
2023-05-05T09:28:23.929Z,50.60
2023-05-05T09:29:26.122Z,49.90
2023-05-05T09:30:28.052Z,49.50
2023-05-05T09:31:30.398Z,49.40
2023-05-05T09:32:43.210Z,49.80
2023-05-05T09:33:46.130Z,50.60
2023-05-05T09:34:57.178Z,50.00
2023-05-05T09:36:02.023Z,51.40
2023-05-05T09:37:04.050Z,50.80
2023-05-05T09:38:12.674Z,48.90
2023-05-05T09:39:15.079Z,48.40
2023-05-05T09:40:18.060Z,48.70
2023-05-05T09:41:36.231Z,49.00
2023-05-05T09:42:38.959Z,50.30
2023-05-05T09:43:50.289Z,48.50
2023-05-05T09:44:52.328Z,49.60
2023-05-05T09:46:05.250Z,49.60
2023-05-05T09:47:18.177Z,49.00
2023-05-05T09:48:29.122Z,48.30
2023-05-05T09:49:31.124Z,48.30
2023-05-05T09:50:42.498Z,47.90
2023-05-05T09:51:46.319Z,48.50
2023-05-05T09:52:55.152Z,49.10
2023-05-05T09:53:57.396Z,49.40
2023-05-05T09:54:59.418Z,48.90
2023-05-05T09:56:01.428Z,48.40
2023-05-05T09:57:03.296Z,48.70
2023-05-05T09:58:18.527Z,49.40
2023-05-05T09:59:21.217Z,49.30
2023-05-05T10:00:37.550Z,49.10
2023-05-05T10:01:39.792Z,48.90
2023-05-05T10:02:42.180Z,49.60
2023-05-05T10:03:49.919Z,50.30
2023-05-05T10:05:04.250Z,49.70
2023-05-05T10:06:07.935Z,50.50
2023-05-05T10:07:22.286Z,50.70
2023-05-05T10:08:25.150Z,50.40
2023-05-05T10:09:27.363Z,51.60
2023-05-05T10:10:29.398Z,49.70
2023-05-05T10:11:31.859Z,48.40
2023-05-05T10:12:35.151Z,49.50
2023-05-05T10:13:42.500Z,51.20
2023-05-05T10:16:08.400Z,50.90
2023-05-05T10:17:10.592Z,50.90
2023-05-05T10:18:13.886Z,51.70
2023-05-05T10:19:16.824Z,51.10
2023-05-05T10:20:20.240Z,50.90
2023-05-05T10:21:27.490Z,50.40
2023-05-05T10:22:33.307Z,49.80
2023-05-05T10:23:38.196Z,50.70
2023-05-05T10:24:44.357Z,51.00
2023-05-05T10:25:50.465Z,51.80
2023-05-05T10:26:56.345Z,51.60
2023-05-05T10:27:59.656Z,51.80
2023-05-05T10:29:02.611Z,51.20
2023-05-05T10:30:05.491Z,51.60
2023-05-05T10:31:20.466Z,51.80
2023-05-05T10:33:42.436Z,52.20
2023-05-05T10:34:49.900Z,52.30
2023-05-05T10:35:53.321Z,53.00
2023-05-05T10:36:57.098Z,52.50
2023-05-05T10:38:01.185Z,50.90
2023-05-05T10:39:03.358Z,50.60
2023-05-05T10:40:06.091Z,51.00
2023-05-05T10:41:10.271Z,50.50
2023-05-05T10:42:13.427Z,50.80
2023-05-05T10:43:15.374Z,51.20
2023-05-05T10:44:17.665Z,51.40
2023-05-05T10:45:20.014Z,51.70
2023-05-05T10:46:24.684Z,51.60
2023-05-05T10:47:27.289Z,51.20
2023-05-05T10:48:33.159Z,51.70
2023-05-05T10:49:42.382Z,52.20
2023-05-05T10:50:47.609Z,52.80
2023-05-05T10:51:52.739Z,52.00
2023-05-05T10:53:07.811Z,52.40
2023-05-05T10:54:16.070Z,52.40
2023-05-05T10:55:21.850Z,52.80
2023-05-05T10:56:30.288Z,53.20
2023-05-05T10:57:35.339Z,53.50
2023-05-05T10:58:58.937Z,53.40
2023-05-05T11:00:02.263Z,53.30
2023-05-05T11:01:05.506Z,52.50
2023-05-05T11:02:25.016Z,52.50
2023-05-05T11:03:27.505Z,52.40
2023-05-05T11:04:31.181Z,52.50
2023-05-05T11:05:34.440Z,52.90
2023-05-05T11:06:39.279Z,52.70
2023-05-05T11:07:59.603Z,52.50
2023-05-05T11:09:29.715Z,53.20
2023-05-05T11:10:46.601Z,52.20
2023-05-05T11:12:05.527Z,52.70
2023-05-05T11:13:20.118Z,53.20
2023-05-05T11:14:22.634Z,52.80
2023-05-05T11:15:37.750Z,52.70
2023-05-05T11:16:45.512Z,52.70
2023-05-05T11:17:48.325Z,52.70
2023-05-05T11:18:50.774Z,52.30
2023-05-05T11:19:53.641Z,52.40
2023-05-05T11:21:15.703Z,52.10
2023-05-05T11:22:20.008Z,51.80
2023-05-05T11:23:22.896Z,51.80
2023-05-05T11:24:32.022Z,51.70
2023-05-05T11:25:47.292Z,51.60
2023-05-05T11:26:51.710Z,52.10
2023-05-05T11:28:07.036Z,51.80
2023-05-05T11:29:09.250Z,51.80
2023-05-05T11:30:12.894Z,51.70
2023-05-05T11:31:19.890Z,51.70
2023-05-05T11:32:27.590Z,51.50
2023-05-05T11:33:31.333Z,51.30
2023-05-05T11:34:33.613Z,52.00
2023-05-05T11:35:56.598Z,51.50
2023-05-05T11:37:03.339Z,50.80
2023-05-05T11:38:08.267Z,50.30
2023-05-05T11:39:21.395Z,49.50
2023-05-05T11:40:28.816Z,49.00
2023-05-05T11:42:21.834Z,49.60
2023-05-05T11:43:24.302Z,50.20
2023-05-05T11:44:35.930Z,49.00
2023-05-05T11:45:38.392Z,48.50
2023-05-05T11:47:22.625Z,48.90
2023-05-05T11:48:26.220Z,49.60
2023-05-05T11:49:29.577Z,48.90
2023-05-05T11:50:34.949Z,49.50
2023-05-05T11:51:37.523Z,49.40
2023-05-05T11:52:43.909Z,49.30
2023-05-05T11:53:47.573Z,49.00
2023-05-05T11:54:50.557Z,48.40
2023-05-05T11:56:10.490Z,48.20
2023-05-05T11:57:12.994Z,47.70
2023-05-05T11:58:21.470Z,47.50
2023-05-05T11:59:23.733Z,47.10
2023-05-05T12:00:33.389Z,46.90
2023-05-05T12:01:39.271Z,47.20
2023-05-05T12:02:41.776Z,46.60
2023-05-05T12:03:45.840Z,46.20
2023-05-05T12:04:49.350Z,46.10
2023-05-05T12:05:54.654Z,46.10
2023-05-05T12:06:58.751Z,46.80
2023-05-05T12:08:02.022Z,46.70
2023-05-05T12:09:06.617Z,46.50
2023-05-05T12:10:11.757Z,47.00
2023-05-05T12:11:18.428Z,46.80
2023-05-05T12:12:33.995Z,46.40
2023-05-05T12:13:50.473Z,46.60
2023-05-05T12:14:56.657Z,46.60
2023-05-05T12:16:10.125Z,46.50
2023-05-05T12:17:13.153Z,46.50
2023-05-05T12:18:21.625Z,46.80
2023-05-05T12:19:39.205Z,46.20
2023-05-05T12:20:44.417Z,46.50
2023-05-05T12:21:47.895Z,45.40
2023-05-05T12:22:50.120Z,45.30
2023-05-05T12:23:52.674Z,46.10
2023-05-05T12:24:56.515Z,46.20
2023-05-05T12:25:58.908Z,46.10
2023-05-05T12:27:14.249Z,46.40
2023-05-05T12:28:16.643Z,46.30
2023-05-05T12:29:24.439Z,45.60
2023-05-05T12:30:26.680Z,44.00
2023-05-05T12:31:37.795Z,44.20
2023-05-05T12:32:42.443Z,44.70
2023-05-05T12:33:45.413Z,44.00
2023-05-05T12:34:48.217Z,42.60
2023-05-05T12:35:52.763Z,41.20
2023-05-05T12:36:55.097Z,39.20
2023-05-05T12:37:58.614Z,38.30
2023-05-05T12:39:02.008Z,37.00
2023-05-05T12:40:06.633Z,37.10
2023-05-05T12:41:17.602Z,36.50
2023-05-05T12:42:21.963Z,35.60
2023-05-05T12:43:27.216Z,35.40
2023-05-05T12:44:35.967Z,35.20
2023-05-05T12:45:38.249Z,34.30
2023-05-05T12:46:47.695Z,34.40
2023-05-05T12:47:52.196Z,34.00
2023-05-05T12:49:01.914Z,33.60
2023-05-05T12:50:04.671Z,33.60
2023-05-05T12:51:15.155Z,32.90
2023-05-05T12:52:17.915Z,33.00
2023-05-05T12:53:23.733Z,32.90
2023-05-05T12:54:29.646Z,33.10
2023-05-05T12:55:39.862Z,32.20
2023-05-05T12:56:44.089Z,31.80
2023-05-05T12:58:04.736Z,31.80
2023-05-05T12:59:09.574Z,31.30
2023-05-05T13:00:16.304Z,31.80
2023-05-05T13:01:18.583Z,31.40
2023-05-05T13:02:21.190Z,31.30
2023-05-05T13:03:23.786Z,31.20
2023-05-05T13:04:27.488Z,31.00
2023-05-05T13:05:31.611Z,31.50
2023-05-05T13:06:38.836Z,31.90
2023-05-05T13:07:50.987Z,31.70
2023-05-05T13:08:53.341Z,31.90
2023-05-05T13:10:07.755Z,31.30
2023-05-05T13:11:10.188Z,30.80
2023-05-05T13:12:12.614Z,31.30
2023-05-05T13:13:17.943Z,31.70
2023-05-05T13:14:23.069Z,31.90
2023-05-05T13:15:26.156Z,31.90
2023-05-05T13:16:30.734Z,32.10
2023-05-05T13:17:34.781Z,32.40
2023-05-05T13:18:44.549Z,32.70
2023-05-05T13:19:46.841Z,33.10
2023-05-05T13:20:49.151Z,32.40
2023-05-05T13:21:51.908Z,32.20
2023-05-05T13:22:54.196Z,31.90
2023-05-05T13:24:08.331Z,31.20
2023-05-05T13:25:21.560Z,31.10
2023-05-05T13:26:24.975Z,31.30
2023-05-05T13:27:27.236Z,31.60
2023-05-05T13:28:30.968Z,32.10
2023-05-05T13:29:39.903Z,31.70
2023-05-05T13:30:43.154Z,31.80
2023-05-05T13:31:47.141Z,32.20
2023-05-05T13:32:49.632Z,32.80
2023-05-05T13:33:52.003Z,32.50
2023-05-05T13:34:54.548Z,32.30
2023-05-05T13:35:59.592Z,32.10
2023-05-05T13:37:01.856Z,31.90
2023-05-05T13:38:04.098Z,32.00
2023-05-05T13:39:07.342Z,32.20
2023-05-05T13:40:12.664Z,32.10
2023-05-05T13:41:20.630Z,32.20
2023-05-05T13:42:26.305Z,32.00
2023-05-05T13:43:41.180Z,32.00
2023-05-05T13:44:50.832Z,31.90
2023-05-05T13:45:53.698Z,32.00
2023-05-05T13:46:56.067Z,32.20
2023-05-05T13:47:58.549Z,32.60
2023-05-05T13:49:01.808Z,32.80
2023-05-05T13:50:05.116Z,32.80
2023-05-05T13:51:13.711Z,33.10
2023-05-05T13:52:21.439Z,32.40
2023-05-05T13:53:23.801Z,32.90
2023-05-05T13:54:28.994Z,32.30
2023-05-05T13:55:33.290Z,32.00
2023-05-05T13:56:41.871Z,32.10
2023-05-05T13:57:44.318Z,32.40
2023-05-05T13:58:48.167Z,32.50
2023-05-05T13:59:50.736Z,32.30
2023-05-05T14:00:53.828Z,32.30